Time;durP1;ratioP1;P1;durP2;ratioP2;P2;SDS_P1;SDS_P2;PMS_P1;PMS_P2;Temp;Humidity;BMP_temperature;BMP_pressure;BME280_temperature;BME280_humidity;BME280_pressure;Samples;Min_cycle;Max_cycle;Signal;HPM_P1;HPM_P2
2022/03/05 00:01:46;;;;;;;8.70;1.83;;;;;;;11.12;nan;101986.81;4815458;29;20468;-89
2022/03/05 00:04:15;;;;;;;3.80;1.30;;;;;;;10.94;nan;101957.69;4845428;29;20455;-90
2022/03/05 00:06:43;;;;;;;6.30;1.60;;;;;;;11.07;nan;101984.56;4812314;29;20471;-89
2022/03/05 00:09:11;;;;;;;3.57;1.63;;;;;;;11.05;nan;101984.72;4827091;29;20541;-90
2022/03/05 00:11:39;;;;;;;12.20;2.17;;;;;;;11.08;nan;101983.53;4812294;29;20971;-89
2022/03/05 00:14:08;;;;;;;4.87;1.23;;;;;;;11.00;nan;101970.69;4797417;29;20493;-91
2022/03/05 00:16:36;;;;;;;11.07;2.17;;;;;;;11.07;nan;101982.69;4808099;29;20790;-90
2022/03/05 00:19:12;;;;;;;9.33;1.57;;;;;;;11.01;nan;101969.66;4868073;29;20445;-91
2022/03/05 00:21:41;;;;;;;10.53;1.53;;;;;;;11.14;nan;101990.25;4898483;29;20963;-93
2022/03/05 00:24:10;;;;;;;8.53;1.83;;;;;;;11.10;nan;101989.72;4867849;29;20458;-93
2022/03/05 00:26:38;;;;;;;7.50;2.00;;;;;;;11.14;nan;102003.91;4868765;29;20461;-94
2022/03/05 00:29:14;;;;;;;9.30;2.00;;;;;;;11.15;nan;101997.44;4883630;29;20901;-93
2022/03/05 00:31:42;;;;;;;5.00;1.83;;;;;;;11.13;nan;101994.00;4867633;29;20481;-93
2022/03/05 00:34:12;;;;;;;6.30;1.70;;;;;;;11.21;nan;102003.06;4899003;29;20516;-93
2022/03/05 00:36:47;;;;;;;6.70;1.33;;;;;;;11.17;nan;101995.34;4882691;29;20453;-93
2022/03/05 00:39:16;;;;;;;9.00;2.00;;;;;;;11.16;nan;101980.81;4861789;29;20463;-92
2022/03/05 00:41:50;;;;;;;8.83;2.27;;;;;;;11.19;nan;101982.34;4883335;29;20953;-93
2022/03/05 00:44:17;;;;;;;4.77;1.80;;;;;;;11.07;nan;101963.53;4861555;29;20458;-93
2022/03/05 00:46:46;;;;;;;8.50;1.20;;;;;;;11.17;nan;101979.78;4897987;29;20537;-93
2022/03/05 00:49:15;;;;;;;9.60;1.80;;;;;;;11.18;nan;101969.69;4883138;29;20489;-93
2022/03/05 00:51:50;;;;;;;8.93;1.90;;;;;;;11.11;nan;101963.22;4867728;29;20462;-93
2022/03/05 00:54:29;;;;;;;7.90;2.20;;;;;;;11.21;nan;101972.97;4870143;29;20815;-93
2022/03/05 00:56:59;;;;;;;5.77;1.70;;;;;;;11.23;nan;101973.66;4867911;29;20987;-92
2022/03/05 00:59:33;;;;;;;18.50;2.30;;;;;;;11.21;nan;101970.22;4882527;29;20449;-92
2022/03/05 01:02:03;;;;;;;5.83;1.77;;;;;;;11.21;nan;101969.38;4883759;29;20480;-92
2022/03/05 01:04:38;;;;;;;6.73;1.70;;;;;;;11.13;nan;101955.69;4882937;29;20485;-92
2022/03/05 01:07:07;;;;;;;11.00;1.83;;;;;;;11.16;nan;101966.31;4878774;29;20464;-92
2022/03/05 01:09:36;;;;;;;7.30;1.60;;;;;;;11.18;nan;101965.09;4882362;29;20481;-92
2022/03/05 01:12:06;;;;;;;11.40;1.77;;;;;;;11.12;nan;101948.50;4882789;29;20458;-93
2022/03/05 01:14:34;;;;;;;7.60;2.07;;;;;;;11.11;nan;101947.66;4882995;29;20457;-92
2022/03/05 01:17:08;;;;;;;8.20;2.10;;;;;;;11.16;nan;101960.84;4882695;29;20459;-92
2022/03/05 01:19:38;;;;;;;5.70;2.30;;;;;;;11.05;nan;101951.91;4882093;29;20449;-91
2022/03/05 01:22:12;;;;;;;5.00;1.53;;;;;;;11.05;nan;101951.91;4870708;29;21016;-93
2022/03/05 01:24:40;;;;;;;8.03;1.30;;;;;;;11.00;nan;101948.81;4867543;29;20449;-90
2022/03/05 01:27:10;;;;;;;11.37;2.53;;;;;;;11.04;nan;101954.81;4883174;29;20457;-93
2022/03/05 01:29:38;;;;;;;11.17;1.83;;;;;;;11.00;nan;101951.53;4867649;29;20486;-93
2022/03/05 01:32:07;;;;;;;11.30;1.87;;;;;;;10.98;nan;101939.03;4867413;29;21047;-91
2022/03/05 01:34:41;;;;;;;17.03;3.10;;;;;;;10.94;nan;101933.09;4867374;29;20456;-93
2022/03/05 01:37:11;;;;;;;9.00;1.63;;;;;;;10.95;nan;101932.06;4867010;29;20461;-92
2022/03/05 01:39:41;;;;;;;8.33;1.30;;;;;;;10.94;nan;101922.13;4882395;29;20453;-92
2022/03/05 01:42:10;;;;;;;18.27;2.10;;;;;;;11.05;nan;101927.28;4890068;29;20846;-91
2022/03/05 01:44:38;;;;;;;11.50;2.30;;;;;;;10.96;nan;101920.09;4867534;29;20974;-92
2022/03/05 01:47:06;;;;;;;10.27;2.30;;;;;;;10.91;nan;101907.94;4881867;29;20453;-92
2022/03/05 01:49:40;;;;;;;14.20;3.20;;;;;;;11.06;nan;101934.47;4867021;29;20477;-92
2022/03/05 01:52:11;;;;;;;9.33;2.57;;;;;;;10.94;nan;101908.47;4867256;29;20461;-92
2022/03/05 01:54:41;;;;;;;23.70;3.50;;;;;;;11.06;nan;101929.00;4897990;29;20457;-92
2022/03/05 01:57:11;;;;;;;13.13;2.60;;;;;;;11.02;nan;101908.47;4867279;29;20785;-91
2022/03/05 01:59:47;;;;;;;17.27;2.43;;;;;;;10.95;nan;101896.50;4866860;29;20473;-91
2022/03/05 02:02:17;;;;;;;11.03;1.87;;;;;;;11.04;nan;101900.94;4869495;29;20445;-91
2022/03/05 02:04:45;;;;;;;13.07;2.60;;;;;;;11.00;nan;101885.88;4814766;29;20464;-91
2022/03/05 02:07:21;;;;;;;12.47;2.80;;;;;;;11.00;nan;101883.16;4814051;29;20467;-92
2022/03/05 02:09:51;;;;;;;10.10;2.67;;;;;;;11.00;nan;101885.03;4829440;29;20487;-92
2022/03/05 02:12:25;;;;;;;14.07;2.60;;;;;;;10.90;nan;101855.13;4823835;29;20452;-93
2022/03/05 02:14:55;;;;;;;13.10;3.07;;;;;;;10.92;nan;101860.41;4829823;29;20449;-92
2022/03/05 02:17:27;;;;;;;10.20;2.67;;;;;;;10.90;nan;101857.84;4814426;29;20858;-92
2022/03/05 02:19:55;;;;;;;13.40;3.07;;;;;;;10.95;nan;101865.56;4813709;29;20464;-89
2022/03/05 02:22:24;;;;;;;11.60;2.20;;;;;;;10.91;nan;101855.97;4828684;29;20453;-91
2022/03/05 02:24:54;;;;;;;18.30;3.43;;;;;;;10.91;nan;101856.81;4877256;29;20464;-91
2022/03/05 02:27:25;;;;;;;11.40;3.20;;;;;;;10.94;nan;101863.84;4904094;29;20460;-91
2022/03/05 02:29:53;;;;;;;9.43;2.40;;;;;;;10.94;nan;101852.91;4904117;29;20484;-92
2022/03/05 02:32:22;;;;;;;11.77;1.87;;;;;;;10.93;nan;101859.41;4888987;29;20527;-92
2022/03/05 02:34:50;;;;;;;10.30;2.17;;;;;;;10.88;nan;101846.22;4888420;29;20936;-92
2022/03/05 02:37:19;;;;;;;13.70;3.10;;;;;;;10.75;nan;101826.72;4888403;29;20831;-90
2022/03/05 02:39:47;;;;;;;11.23;2.87;;;;;;;10.87;nan;101847.25;4903435;29;20459;-88
2022/03/05 02:42:15;;;;;;;11.63;2.50;;;;;;;10.87;nan;101840.91;4903633;29;20774;-89
2022/03/05 02:44:43;;;;;;;13.70;2.80;;;;;;;10.89;nan;101847.06;4903682;29;20966;-89
2022/03/05 02:47:12;;;;;;;17.03;4.50;;;;;;;10.90;nan;101835.97;4903621;29;20449;-89
2022/03/05 02:49:41;;;;;;;13.23;2.50;;;;;;;10.89;nan;101809.63;4896483;29;20542;-92
2022/03/05 02:52:25;;;;;;;27.97;3.70;;;;;;;10.90;nan;101814.09;4866705;29;20450;-93
2022/03/05 02:55:11;;;;;;;18.93;3.40;;;;;;;10.90;nan;101830.50;4869439;29;20936;-92
2022/03/05 02:57:45;;;;;;;28.03;3.90;;;;;;;10.79;nan;101811.66;4885487;29;20422;-93
2022/03/05 03:00:15;;;;;;;17.43;2.80;;;;;;;10.94;nan;101826.41;4869696;29;20484;-93
2022/03/05 03:02:55;;;;;;;17.17;3.63;;;;;;;10.98;nan;101818.69;4869619;29;20449;-93
2022/03/05 03:05:24;;;;;;;13.43;2.97;;;;;;;10.90;nan;101814.09;4869461;29;20815;-93
2022/03/05 03:08:06;;;;;;;15.90;3.60;;;;;;;10.80;nan;101807.91;4869892;29;20811;-93
2022/03/05 03:10:46;;;;;;;18.50;3.60;;;;;;;10.94;nan;101825.56;4869882;29;20486;-93
2022/03/05 03:13:29;;;;;;;12.00;2.97;;;;;;;10.93;nan;101829.31;4880413;29;20514;-92
2022/03/05 03:15:59;;;;;;;20.93;3.43;;;;;;;10.88;nan;101824.34;4866146;29;20459;-93
2022/03/05 03:18:33;;;;;;;16.80;2.60;;;;;;;10.83;nan;101832.19;4850740;29;20446;-92
2022/03/05 03:21:19;;;;;;;23.57;4.80;;;;;;;10.86;nan;101834.59;4869471;29;20532;-93
2022/03/05 03:23:55;;;;;;;12.43;2.93;;;;;;;10.78;nan;101815.41;4884838;29;20446;-93
2022/03/05 03:26:24;;;;;;;19.87;3.73;;;;;;;10.82;nan;101827.75;4869092;29;20453;-93
2022/03/05 03:28:59;;;;;;;15.23;3.00;;;;;;;10.80;nan;101824.31;4884378;29;20482;-91
2022/03/05 03:31:49;;;;;;;18.30;3.20;;;;;;;10.76;nan;101817.50;4842627;29;20999;-92
2022/03/05 03:34:20;;;;;;;12.70;3.23;;;;;;;10.76;nan;101825.69;4827990;29;20460;-92
2022/03/05 03:36:59;;;;;;;25.70;3.07;;;;;;;10.68;nan;101812.00;4827552;29;20528;-93
2022/03/05 03:39:30;;;;;;;12.63;3.13;;;;;;;10.68;nan;101817.47;4814075;29;20520;-92
2022/03/05 03:41:59;;;;;;;18.93;3.63;;;;;;;10.64;nan;101813.34;4813782;29;20492;-92
2022/03/05 03:44:28;;;;;;;15.47;2.47;;;;;;;10.61;nan;101819.16;4813777;29;20460;-92
2022/03/05 03:46:58;;;;;;;13.30;2.87;;;;;;;10.52;nan;101806.50;4812911;29;20467;-92
2022/03/05 03:49:26;;;;;;;35.47;5.53;;;;;;;10.54;nan;101808.06;4832753;29;20486;-92
2022/03/05 03:51:56;;;;;;;15.50;3.00;;;;;;;10.50;nan;101811.28;4855857;29;20967;-91
2022/03/05 03:54:25;;;;;;;15.57;4.97;;;;;;;10.44;nan;101806.47;4867584;29;20453;-92
2022/03/05 03:56:53;;;;;;;7.87;2.40;;;;;;;10.41;nan;101806.81;4875673;29;20464;-89
2022/03/05 03:59:22;;;;;;;13.80;4.30;;;;;;;10.38;nan;101822.53;4868849;29;20449;-89
2022/03/05 04:01:50;;;;;;;15.30;2.67;;;;;;;10.35;nan;101820.13;4868566;29;20460;-88
2022/03/05 04:04:18;;;;;;;8.87;2.53;;;;;;;10.28;nan;101810.88;4868404;29;20456;-89
2022/03/05 04:09:33;;;;;;;15.60;3.90;;;;;;;10.10;nan;101812.84;4885402;29;20485;-89
2022/03/05 04:12:01;;;;;;;13.50;3.20;;;;;;;10.11;nan;101809.09;4898666;29;20453;-89
2022/03/05 04:14:28;;;;;;;11.57;2.93;;;;;;;10.11;nan;101810.97;4883108;29;20944;-89
2022/03/05 04:16:57;;;;;;;12.87;3.03;;;;;;;10.07;nan;101804.09;4898238;29;20937;-90
2022/03/05 04:19:25;;;;;;;19.40;3.30;;;;;;;9.95;nan;101793.50;4866892;29;20459;-90
2022/03/05 04:21:52;;;;;;;9.03;2.53;;;;;;;9.90;nan;101789.53;4882316;29;20446;-89
2022/03/05 04:24:21;;;;;;;15.60;2.80;;;;;;;9.88;nan;101799.75;4864221;29;20465;-90
2022/03/05 04:26:50;;;;;;;19.40;3.53;;;;;;;9.87;nan;101803.50;4879309;29;20445;-91
2022/03/05 04:29:17;;;;;;;7.33;2.30;;;;;;;9.76;nan;101792.88;4864289;29;20474;-90
2022/03/05 04:31:46;;;;;;;7.60;2.10;;;;;;;9.68;nan;101794.53;4881087;29;21046;-89
2022/03/05 04:34:15;;;;;;;13.30;2.67;;;;;;;9.62;nan;101805.28;4879944;29;20455;-89
2022/03/05 04:36:45;;;;;;;8.20;2.50;;;;;;;9.56;nan;101817.69;4888673;29;20453;-87
2022/03/05 04:39:13;;;;;;;11.47;2.63;;;;;;;9.48;nan;101800.38;4866784;29;20795;-89
2022/03/05 04:41:41;;;;;;;17.03;2.53;;;;;;;9.43;nan;101810.94;4862929;29;20450;-89
2022/03/05 04:44:09;;;;;;;8.53;2.60;;;;;;;9.29;nan;101796.84;4882141;29;20481;-89
2022/03/05 04:46:37;;;;;;;11.90;2.30;;;;;;;9.26;nan;101812.66;4881901;29;20847;-89
2022/03/05 04:49:08;;;;;;;12.90;2.50;;;;;;;9.19;nan;101808.88;4880983;29;20449;-90
2022/03/05 04:51:37;;;;;;;7.50;3.83;;;;;;;9.09;nan;101813.56;4897236;29;20446;-89
2022/03/05 04:54:04;;;;;;;9.03;2.27;;;;;;;9.03;nan;101808.75;4881726;29;20454;-90
2022/03/05 04:56:33;;;;;;;10.47;2.00;;;;;;;8.93;nan;101800.66;4881851;29;20450;-89
2022/03/05 04:59:01;;;;;;;6.43;2.27;;;;;;;8.82;nan;101790.88;4866541;29;20448;-89
2022/03/05 05:01:30;;;;;;;13.17;2.37;;;;;;;8.82;nan;101807.22;4878458;29;20450;-90
2022/03/05 05:03:57;;;;;;;10.40;2.53;;;;;;;8.77;nan;101811.41;4866526;29;20449;-90
2022/03/05 05:06:25;;;;;;;10.20;2.47;;;;;;;8.71;nan;101795.69;4881792;29;20448;-89
2022/03/05 05:08:53;;;;;;;9.47;2.63;;;;;;;8.83;nan;101814.38;4881757;29;20509;-89
2022/03/05 05:11:30;;;;;;;12.83;2.93;;;;;;;8.82;nan;101803.63;4881713;29;20516;-90
2022/03/05 05:13:58;;;;;;;11.60;3.23;;;;;;;8.85;nan;101798.69;4881683;29;20450;-89
2022/03/05 05:16:26;;;;;;;14.00;2.87;;;;;;;8.72;nan;101779.16;4878903;29;20497;-90
2022/03/05 05:21:49;;;;;;;11.17;1.90;;;;;;;8.76;nan;101806.97;4884678;29;20465;-91
2022/03/05 05:24:19;;;;;;;14.37;2.20;;;;;;;8.75;nan;101811.56;4881573;29;20464;-89
2022/03/05 05:26:48;;;;;;;12.00;3.00;;;;;;;8.72;nan;101784.63;4881326;29;20454;-89
2022/03/05 05:29:26;;;;;;;9.27;2.30;;;;;;;8.84;nan;101805.19;4882242;29;20461;-93
2022/03/05 05:32:10;;;;;;;9.37;3.47;;;;;;;8.88;nan;101801.13;4883834;29;20458;-93
2022/03/05 05:34:45;;;;;;;15.70;2.53;;;;;;;8.89;nan;101802.84;4796884;29;20464;-93
2022/03/05 05:37:16;;;;;;;7.23;2.63;;;;;;;8.85;nan;101792.44;4811565;29;20440;-94
2022/03/05 05:39:45;;;;;;;11.33;2.43;;;;;;;8.79;nan;101779.41;4810763;29;20449;-93
2022/03/05 05:42:22;;;;;;;12.30;2.40;;;;;;;8.96;nan;101803.06;4812020;29;20452;-93
2022/03/05 05:44:56;;;;;;;6.60;2.17;;;;;;;8.93;nan;101803.38;4826077;29;20485;-93
2022/03/05 05:47:30;;;;;;;14.43;2.93;;;;;;;8.91;nan;101798.09;4793286;29;20488;-93
2022/03/05 05:49:57;;;;;;;8.03;2.47;;;;;;;8.88;nan;101795.66;4796234;29;20499;-92
2022/03/05 05:52:25;;;;;;;10.90;2.47;;;;;;;8.89;nan;101794.66;4831006;29;20773;-92
2022/03/05 05:54:53;;;;;;;8.27;2.50;;;;;;;8.92;nan;101796.22;4880512;29;20453;-93
2022/03/05 05:57:22;;;;;;;15.53;2.67;;;;;;;8.94;nan;101791.47;4875484;29;20448;-93
2022/03/05 05:59:52;;;;;;;14.23;2.73;;;;;;;8.87;nan;101772.16;4867121;29;20466;-92
2022/03/05 06:02:27;;;;;;;13.23;3.47;;;;;;;8.90;nan;101774.56;4882907;29;20771;-92
2022/03/05 06:05:02;;;;;;;15.23;4.57;;;;;;;8.90;nan;101771.84;4858970;29;20486;-93
2022/03/05 06:07:29;;;;;;;17.00;4.87;;;;;;;8.79;nan;101768.50;4866724;29;20480;-93
2022/03/05 06:10:00;;;;;;;15.10;4.63;;;;;;;8.86;nan;101784.06;4867168;29;20490;-92
2022/03/05 06:12:31;;;;;;;17.10;4.30;;;;;;;8.75;nan;101770.69;4898276;29;20461;-93
2022/03/05 06:15:01;;;;;;;8.07;3.30;;;;;;;8.71;nan;101766.56;4882095;29;20453;-92
2022/03/05 06:17:30;;;;;;;9.33;3.53;;;;;;;8.69;nan;101775.91;4881781;29;20492;-92
2022/03/05 06:20:01;;;;;;;11.10;2.70;;;;;;;8.62;nan;101768.38;4863641;29;20461;-90
2022/03/05 06:22:29;;;;;;;12.20;3.77;;;;;;;8.55;nan;101759.09;4863436;29;20450;-90
2022/03/05 06:24:57;;;;;;;8.57;3.10;;;;;;;8.49;nan;101756.13;4859224;29;20465;-89
2022/03/05 06:27:26;;;;;;;17.80;3.50;;;;;;;8.51;nan;101765.00;4865958;29;20878;-90
2022/03/05 06:29:55;;;;;;;9.73;2.80;;;;;;;8.48;nan;101762.59;4878164;29;21028;-90
2022/03/05 06:32:23;;;;;;;13.03;2.67;;;;;;;8.39;nan;101768.97;4862893;29;20486;-90
2022/03/05 06:34:54;;;;;;;6.43;1.77;;;;;;;8.31;nan;101765.13;4863244;29;20458;-89
2022/03/05 06:37:23;;;;;;;6.53;1.87;;;;;;;8.20;nan;101753.59;4863633;29;20461;-91
2022/03/05 06:39:53;;;;;;;6.47;2.20;;;;;;;8.19;nan;101773.66;4867163;29;20460;-91
2022/03/05 06:42:21;;;;;;;9.27;1.87;;;;;;;8.01;nan;101754.56;4897738;29;20445;-91
2022/03/05 06:44:50;;;;;;;11.70;2.20;;;;;;;8.06;nan;101770.47;4867247;29;20460;-90
2022/03/05 06:47:18;;;;;;;7.43;2.17;;;;;;;8.04;nan;101762.44;4883047;29;20465;-90
2022/03/05 06:49:46;;;;;;;8.00;2.03;;;;;;;8.05;nan;101763.31;4866836;29;20454;-89
2022/03/05 06:52:20;;;;;;;17.13;3.20;;;;;;;8.00;nan;101766.47;4866483;29;20914;-92
2022/03/05 06:54:57;;;;;;;13.70;3.07;;;;;;;8.00;nan;101774.63;4866442;29;20458;-92
2022/03/05 06:57:27;;;;;;;12.10;2.90;;;;;;;7.92;nan;101756.34;4913216;29;20504;-92
2022/03/05 06:59:57;;;;;;;11.07;2.47;;;;;;;7.89;nan;101763.94;4884667;29;20456;-92
2022/03/05 07:02:31;;;;;;;9.50;2.47;;;;;;;7.89;nan;101762.06;4866826;29;20439;-92
2022/03/05 07:05:01;;;;;;;9.47;2.63;;;;;;;7.89;nan;101761.22;4866184;29;20469;-92
2022/03/05 07:07:34;;;;;;;9.17;2.57;;;;;;;7.84;nan;101760.84;4870300;29;20449;-92
2022/03/05 07:10:03;;;;;;;13.40;3.20;;;;;;;7.86;nan;101769.72;4884605;29;20481;-91
2022/03/05 07:12:31;;;;;;;8.57;2.00;;;;;;;7.82;nan;101768.28;4869236;29;20461;-91
2022/03/05 07:15:08;;;;;;;6.80;2.10;;;;;;;7.75;nan;101767.16;4885467;29;20449;-91
2022/03/05 07:17:49;;;;;;;7.13;2.57;;;;;;;7.63;nan;101759.22;4884559;29;20441;-92
2022/03/05 07:20:18;;;;;;;8.80;2.33;;;;;;;7.60;nan;101758.66;4878313;29;20445;-92
2022/03/05 07:22:48;;;;;;;12.83;2.07;;;;;;;7.58;nan;101755.22;4869868;29;20477;-92
2022/03/05 07:25:25;;;;;;;13.20;2.20;;;;;;;7.44;nan;101753.84;4872908;29;20457;-92
2022/03/05 07:27:53;;;;;;;7.97;2.07;;;;;;;7.41;nan;101748.69;4884647;29;20457;-92
2022/03/05 07:30:21;;;;;;;10.77;2.43;;;;;;;7.45;nan;101750.13;4869424;29;20486;-92
2022/03/05 07:32:51;;;;;;;11.17;2.57;;;;;;;7.55;nan;101769.97;4868632;29;20485;-92
2022/03/05 07:35:24;;;;;;;8.20;1.90;;;;;;;7.61;nan;101766.66;4883947;29;20457;-92
2022/03/05 07:37:58;;;;;;;9.90;3.43;;;;;;;7.61;nan;101746.75;4884316;29;20454;-92
2022/03/05 07:40:38;;;;;;;8.80;2.20;;;;;;;7.81;nan;101767.44;4869853;29;20852;-92
2022/03/05 07:43:08;;;;;;;8.70;2.43;;;;;;;7.80;nan;101765.72;4869061;29;20941;-92
2022/03/05 07:45:36;;;;;;;9.13;2.70;;;;;;;7.91;nan;101778.25;4868724;29;20533;-90
2022/03/05 07:48:05;;;;;;;8.77;2.73;;;;;;;7.86;nan;101762.41;4868535;29;20468;-89
2022/03/05 07:50:34;;;;;;;11.47;2.00;;;;;;;7.86;nan;101756.09;4869154;29;20482;-92
2022/03/05 07:53:03;;;;;;;9.13;1.83;;;;;;;7.97;nan;101772.22;4868552;29;20457;-89
2022/03/05 07:55:34;;;;;;;6.30;2.63;;;;;;;8.03;nan;101771.63;4868151;29;20453;-92
2022/03/05 07:58:02;;;;;;;11.13;1.93;;;;;;;8.11;nan;101763.53;4867727;29;20469;-89
2022/03/05 08:00:29;;;;;;;10.20;2.53;;;;;;;8.28;nan;101772.72;4863996;29;20455;-90
2022/03/05 08:02:57;;;;;;;15.00;2.47;;;;;;;8.35;nan;101767.56;4880929;29;20461;-90
2022/03/05 08:05:25;;;;;;;9.10;2.60;;;;;;;8.50;nan;101790.53;4865581;29;20953;-89
2022/03/05 08:07:54;;;;;;;8.00;2.53;;;;;;;8.61;nan;101793.03;4862331;29;20514;-89
2022/03/05 08:10:22;;;;;;;24.30;8.30;;;;;;;8.63;nan;101785.56;4880300;29;20993;-89
2022/03/05 08:12:50;;;;;;;23.93;8.70;;;;;;;8.71;nan;101776.59;4882889;29;20457;-90
2022/03/05 08:15:18;;;;;;;16.50;4.70;;;;;;;8.82;nan;101774.50;4882822;29;20448;-90
2022/03/05 08:17:53;;;;;;;12.63;4.20;;;;;;;8.89;nan;101766.53;4882777;29;20460;-90
2022/03/05 08:20:22;;;;;;;14.63;3.70;;;;;;;8.92;nan;101752.59;4882953;29;20438;-89
2022/03/05 08:22:51;;;;;;;13.40;3.73;;;;;;;9.19;nan;101787.06;4868159;29;20438;-93
2022/03/05 08:25:19;;;;;;;8.97;3.20;;;;;;;9.28;nan;101781.50;4866965;29;20489;-93
2022/03/05 08:28:04;;;;;;;22.67;6.10;;;;;;;9.40;nan;101784.84;4883625;29;20455;-93
2022/03/05 08:30:35;;;;;;;21.87;9.50;;;;;;;9.52;nan;101767.16;4881772;29;20462;-93
2022/03/05 08:33:03;;;;;;;25.77;10.13;;;;;;;9.61;nan;101771.66;4896393;29;20477;-93
2022/03/05 08:35:33;;;;;;;27.20;7.80;;;;;;;9.73;nan;101763.19;4867749;29;20460;-93
2022/03/05 08:38:08;;;;;;;17.03;7.40;;;;;;;9.93;nan;101783.75;4864920;29;20896;-92
2022/03/05 08:40:38;;;;;;;13.10;5.50;;;;;;;10.07;nan;101776.78;4868343;29;20924;-92
2022/03/05 08:43:05;;;;;;;17.10;4.30;;;;;;;10.20;nan;101763.56;4883215;29;20458;-92
2022/03/05 08:45:33;;;;;;;13.43;4.33;;;;;;;10.33;nan;101762.06;4868044;29;20968;-93
2022/03/05 08:48:04;;;;;;;19.00;3.80;;;;;;;10.50;nan;101767.56;4871860;29;20457;-95
2022/03/05 08:50:35;;;;;;;10.53;2.87;;;;;;;10.60;nan;101763.63;4870938;29;20475;-94
2022/03/05 08:53:08;;;;;;;17.73;3.43;;;;;;;10.70;nan;101768.94;4815937;29;20455;-92
2022/03/05 08:55:47;;;;;;;8.63;2.33;;;;;;;10.76;nan;101757.34;4811817;29;20837;-92
2022/03/05 08:58:27;;;;;;;10.73;2.00;;;;;;;10.87;nan;101751.53;4812426;29;20464;-91
2022/03/05 09:01:01;;;;;;;12.07;2.07;;;;;;;11.01;nan;101755.44;4814049;29;20829;-92
2022/03/05 09:03:39;;;;;;;9.90;2.33;;;;;;;11.32;nan;101772.00;4829429;29;20460;-91
2022/03/05 09:06:53;;;;;;;11.07;2.07;;;;;;;11.66;nan;101774.50;4814915;29;20459;-91
2022/03/05 09:09:52;;;;;;;16.40;2.30;;;;;;;11.99;nan;101767.88;4845484;29;20909;-91
2022/03/05 09:12:23;;;;;;;14.10;1.70;;;;;;;12.18;nan;101755.63;4892777;29;20477;-90
2022/03/05 09:15:05;;;;;;;8.23;1.67;;;;;;;12.43;nan;101764.56;4880932;29;20498;-92
2022/03/05 09:17:50;;;;;;;12.23;2.23;;;;;;;12.55;nan;101752.16;4897711;29;20457;-91
2022/03/05 09:20:35;;;;;;;8.17;1.87;;;;;;;12.66;nan;101749.00;4898205;29;20863;-91
2022/03/05 09:23:22;;;;;;;8.13;2.37;;;;;;;12.76;nan;101754.22;4897646;29;20460;-92
2022/03/05 09:25:54;;;;;;;18.97;2.53;;;;;;;12.80;nan;101744.59;4897539;29;20457;-93
2022/03/05 09:28:23;;;;;;;6.33;1.90;;;;;;;12.75;nan;101730.56;4913539;29;20457;-92
2022/03/05 09:31:04;;;;;;;8.57;2.70;;;;;;;12.81;nan;101735.31;4867551;29;20900;-93
2022/03/05 09:33:42;;;;;;;8.13;2.67;;;;;;;12.89;nan;101729.78;4848546;29;20993;-91
2022/03/05 09:36:12;;;;;;;9.67;2.13;;;;;;;13.04;nan;101724.31;4846776;29;20459;-90
2022/03/05 09:38:45;;;;;;;7.17;1.70;;;;;;;13.15;nan;101734.88;4842548;29;20460;-90
2022/03/05 09:41:20;;;;;;;7.03;1.37;;;;;;;13.23;nan;101717.47;4859143;29;20436;-91
2022/03/05 09:43:50;;;;;;;7.00;1.70;;;;;;;13.48;nan;101716.16;4846259;29;20470;-91
2022/03/05 09:46:27;;;;;;;14.20;2.00;;;;;;;13.65;nan;101717.69;4830138;29;20459;-90
2022/03/05 09:48:57;;;;;;;11.03;2.00;;;;;;;13.88;nan;101722.19;4830238;29;20451;-90
2022/03/05 09:51:27;;;;;;;10.63;2.10;;;;;;;13.90;nan;101712.72;4830201;29;20534;-92
2022/03/05 09:53:55;;;;;;;11.47;3.23;;;;;;;14.06;nan;101717.13;4830149;29;20462;-91
2022/03/05 09:56:23;;;;;;;3.57;1.30;;;;;;;14.10;nan;101705.56;4827262;29;20814;-92
2022/03/05 09:58:53;;;;;;;2.17;1.30;;;;;;;14.34;nan;101723.63;4812343;29;20467;-92
2022/03/05 10:01:20;;;;;;;5.50;0.90;;;;;;;14.39;nan;101699.16;4813743;29;20457;-90
2022/03/05 10:03:53;;;;;;;10.67;1.30;;;;;;;14.55;nan;101711.81;4845222;29;20471;-93
2022/03/05 10:06:28;;;;;;;5.00;0.83;;;;;;;14.60;nan;101701.09;4829873;29;20466;-93
2022/03/05 10:08:56;;;;;;;11.90;2.27;;;;;;;14.72;nan;101701.38;4829245;29;20455;-90
2022/03/05 10:11:38;;;;;;;9.57;1.37;;;;;;;14.90;nan;101698.16;4832555;29;20490;-93
2022/03/05 10:14:35;;;;;;;7.77;1.23;;;;;;;14.97;nan;101693.56;4835452;29;20506;-93
2022/03/05 10:17:10;;;;;;;3.40;1.80;;;;;;;14.92;nan;101680.41;4827512;29;20433;-92
2022/03/05 10:20:04;;;;;;;5.70;1.47;;;;;;;14.89;nan;101678.03;4815919;29;20459;-93
2022/03/05 10:22:42;;;;;;;8.53;1.60;;;;;;;14.90;nan;101667.88;4837889;29;20452;-92
2022/03/05 10:25:21;;;;;;;10.83;2.03;;;;;;;14.96;nan;101662.44;4799069;29;20512;-92
2022/03/05 10:27:49;;;;;;;5.17;1.00;;;;;;;15.20;nan;101675.72;4828897;29;20448;-92
2022/03/05 10:30:31;;;;;;;5.90;1.00;;;;;;;15.27;nan;101661.16;4813679;29;20541;-91
2022/03/05 10:32:59;;;;;;;3.67;1.10;;;;;;;15.39;nan;101660.41;4830210;29;20473;-90
2022/03/05 10:35:28;;;;;;;10.67;1.90;;;;;;;15.42;nan;101651.72;4865174;29;20489;-91
2022/03/05 10:37:59;;;;;;;8.33;1.70;;;;;;;15.50;nan;101653.47;4850773;29;20458;-91
2022/03/05 10:40:35;;;;;;;6.27;2.27;;;;;;;15.70;nan;101662.72;4850400;29;20462;-92
2022/03/05 10:43:05;;;;;;;4.23;1.53;;;;;;;15.67;nan;101652.09;4839254;29;20446;-88
2022/03/05 10:46:00;;;;;;;4.07;1.10;;;;;;;15.67;nan;101665.88;4865961;29;20955;-90
2022/03/05 10:48:32;;;;;;;3.60;1.37;;;;;;;15.54;nan;101663.03;4877172;29;20469;-90
2022/03/05 10:51:11;;;;;;;7.07;1.17;;;;;;;15.48;nan;101644.53;4866107;29;20554;-91
2022/03/05 10:53:42;;;;;;;2.97;1.00;;;;;;;15.49;nan;101647.09;4865636;29;20446;-91
2022/03/05 10:56:27;;;;;;;2.43;1.00;;;;;;;15.59;nan;101640.41;4881013;29;20459;-89
2022/03/05 10:59:04;;;;;;;4.93;0.90;;;;;;;15.67;nan;101632.78;4878906;29;20461;-89
2022/03/05 11:01:37;;;;;;;6.73;1.17;;;;;;;15.75;nan;101632.63;4863713;29;20532;-91
2022/03/05 11:04:07;;;;;;;5.67;1.40;;;;;;;15.69;nan;101630.69;4861600;29;20460;-90
2022/03/05 11:06:41;;;;;;;10.03;2.27;;;;;;;15.71;nan;101611.19;4880554;29;20816;-90
2022/03/05 11:09:12;;;;;;;5.30;1.63;;;;;;;16.00;nan;101627.38;4850209;29;20450;-90
2022/03/05 11:11:42;;;;;;;3.40;0.70;;;;;;;16.29;nan;101614.31;4862004;29;20483;-91
2022/03/05 11:14:14;;;;;;;6.93;1.67;;;;;;;16.70;nan;101605.88;4863116;29;20455;-88
2022/03/05 11:16:43;;;;;;;4.03;0.93;;;;;;;17.11;nan;101587.13;4864792;29;20953;-89
2022/03/05 11:19:12;;;;;;;5.00;1.10;;;;;;;17.33;nan;101595.09;4864869;29;20447;-91
2022/03/05 11:21:39;;;;;;;5.23;1.07;;;;;;;17.55;nan;101593.75;4865218;29;20443;-89
2022/03/05 11:24:09;;;;;;;9.23;0.97;;;;;;;17.59;nan;101589.50;4861176;29;21070;-85
2022/03/05 11:26:41;;;;;;;5.73;0.87;;;;;;;17.54;nan;101579.09;4865129;29;20443;-90
2022/03/05 11:29:30;;;;;;;6.30;1.53;;;;;;;17.75;nan;101597.31;4879532;29;20498;-86
2022/03/05 11:32:12;;;;;;;5.47;1.00;;;;;;;17.78;nan;101587.72;4879507;29;20545;-84
2022/03/05 11:34:44;;;;;;;6.53;1.50;;;;;;;17.62;nan;101572.47;4878653;29;20443;-85
2022/03/05 11:37:24;;;;;;;3.53;1.20;;;;;;;17.68;nan;101571.63;4864421;29;20447;-84
2022/03/05 11:39:53;;;;;;;6.00;2.10;;;;;;;17.75;nan;101566.91;4879567;29;20866;-85
2022/03/05 11:42:31;;;;;;;5.23;0.87;;;;;;;17.83;nan;101563.88;4861321;29;20448;-86
2022/03/05 11:45:02;;;;;;;4.70;1.10;;;;;;;17.77;nan;101550.09;4879210;29;20438;-87
2022/03/05 11:47:32;;;;;;;4.07;0.90;;;;;;;17.75;nan;101550.31;4846355;29;20813;-86
2022/03/05 11:50:03;;;;;;;3.63;0.87;;;;;;;17.72;nan;101542.44;4860522;29;20450;-86
2022/03/05 11:52:41;;;;;;;5.27;1.00;;;;;;;17.64;nan;101539.06;4876712;29;20565;-87
2022/03/05 11:55:18;;;;;;;4.43;0.97;;;;;;;17.45;nan;101527.06;4879326;29;20937;-86
2022/03/05 11:57:55;;;;;;;4.50;0.93;;;;;;;17.37;nan;101513.47;4879275;29;20450;-87
2022/03/05 12:00:29;;;;;;;5.43;1.07;;;;;;;17.32;nan;101507.78;4877989;29;20454;-86
2022/03/05 12:02:59;;;;;;;5.63;0.90;;;;;;;17.30;nan;101512.66;4866608;29;20801;-88
2022/03/05 12:05:41;;;;;;;12.13;1.80;;;;;;;17.32;nan;101516.06;4879718;29;20442;-89
2022/03/05 12:08:33;;;;;;;3.90;1.10;;;;;;;17.43;nan;101501.53;4879712;29;20481;-86
2022/03/05 12:11:14;;;;;;;11.43;0.87;;;;;;;17.61;nan;101488.69;4878771;29;20462;-88